createdAt,value
2018-11-29T00:00:31.043Z,-4.10
2018-11-29T00:02:59.624Z,-4.20
2018-11-29T00:05:28.203Z,-4.30
2018-11-29T00:10:25.004Z,-3.80
2018-11-29T00:12:53.545Z,-4.00
2018-11-29T00:15:22.091Z,-4.20
2018-11-29T00:17:50.614Z,-4.30
2018-11-29T00:20:20.545Z,-4.30
2018-11-29T00:22:49.930Z,-4.20
2018-11-29T00:25:19.000Z,-4.10
2018-11-29T00:27:47.744Z,-4.10
2018-11-29T00:30:18.280Z,-4.00
2018-11-29T00:32:46.852Z,-4.00
2018-11-29T00:35:16.280Z,-4.10
2018-11-29T00:37:44.854Z,-3.90
2018-11-29T00:40:14.342Z,-3.70
2018-11-29T00:42:42.956Z,-3.90
2018-11-29T00:45:13.352Z,-3.80
2018-11-29T00:47:42.054Z,-3.90
2018-11-29T00:50:11.782Z,-3.90
2018-11-29T00:52:41.083Z,-3.90
2018-11-29T00:55:10.722Z,-4.00
2018-11-29T00:57:39.548Z,-4.10
2018-11-29T01:02:41.790Z,-4.00
2018-11-29T01:05:10.411Z,-3.90
2018-11-29T01:07:39.119Z,-4.00
2018-11-29T01:10:10.289Z,-3.80
2018-11-29T01:12:38.864Z,-4.00
2018-11-29T01:15:25.560Z,-4.10
2018-11-29T01:17:54.143Z,-4.10
2018-11-29T01:20:22.676Z,-4.00
2018-11-29T01:22:51.260Z,-4.00
2018-11-29T01:25:19.852Z,-4.00
2018-11-29T01:27:49.439Z,-4.10
2018-11-29T01:30:19.978Z,-4.20
2018-11-29T01:32:48.615Z,-3.90
2018-11-29T01:35:18.074Z,-3.90
2018-11-29T01:37:46.622Z,-3.90
2018-11-29T01:40:16.896Z,-3.80
2018-11-29T01:42:48.497Z,-3.80
2018-11-29T01:45:17.175Z,-3.90
2018-11-29T01:47:45.737Z,-4.00
2018-11-29T01:50:14.378Z,-4.00
2018-11-29T01:52:42.991Z,-4.00
2018-11-29T01:55:11.576Z,-3.90
2018-11-29T01:57:40.166Z,-4.10
2018-11-29T02:00:17.102Z,-4.00
2018-11-29T02:02:46.982Z,-4.00
2018-11-29T02:05:15.574Z,-3.80
2018-11-29T02:07:44.133Z,-3.90
2018-11-29T02:10:18.662Z,-4.00
2018-11-29T02:12:47.323Z,-4.00
2018-11-29T02:15:15.954Z,-4.00
2018-11-29T02:17:44.566Z,-4.00
2018-11-29T02:20:20.143Z,-3.90
2018-11-29T02:22:48.836Z,-4.00
2018-11-29T02:25:17.390Z,-4.00
2018-11-29T02:27:45.956Z,-4.00
2018-11-29T02:30:20.570Z,-3.90
2018-11-29T02:32:49.256Z,-5.40
2018-11-29T02:35:17.874Z,-4.00
2018-11-29T02:37:46.540Z,-3.90
2018-11-29T02:40:16.183Z,-3.80
2018-11-29T02:42:45.010Z,-3.90
2018-11-29T02:45:15.573Z,-3.90
2018-11-29T02:47:44.098Z,-3.80
2018-11-29T02:50:12.738Z,-3.90
2018-11-29T02:52:41.285Z,-3.90
2018-11-29T02:55:11.644Z,-3.90
2018-11-29T02:57:40.665Z,-3.80
2018-11-29T03:00:12.238Z,-3.80
2018-11-29T03:02:40.772Z,-3.90
2018-11-29T03:05:09.407Z,-4.00
2018-11-29T03:07:38.124Z,-3.90
2018-11-29T03:10:08.608Z,-4.20
2018-11-29T03:12:37.224Z,-4.00
2018-11-29T03:15:10.019Z,-4.00
2018-11-29T03:17:38.608Z,-4.40
2018-11-29T03:20:08.869Z,-4.20
2018-11-29T03:22:37.433Z,-3.10
2018-11-29T03:25:09.195Z,-3.90
2018-11-29T03:27:37.774Z,-3.90
2018-11-29T03:30:08.349Z,-3.90
2018-11-29T03:32:39.797Z,-4.00
2018-11-29T03:35:09.184Z,-4.00
2018-11-29T03:37:37.820Z,-3.90
2018-11-29T03:40:09.175Z,-4.00
2018-11-29T03:42:37.724Z,-3.90
2018-11-29T03:45:07.886Z,-4.10
2018-11-29T03:47:36.593Z,-4.00
2018-11-29T03:50:07.652Z,-4.00
2018-11-29T03:52:36.258Z,-4.10
2018-11-29T03:55:05.574Z,-4.10
2018-11-29T03:57:34.176Z,-4.20
2018-11-29T04:00:02.773Z,-4.00
2018-11-29T04:02:31.346Z,-4.30
2018-11-29T04:04:59.948Z,-4.00
2018-11-29T04:07:28.469Z,-3.50
2018-11-29T04:12:25.269Z,-2.00
2018-11-29T04:14:53.857Z,-4.00
2018-11-29T04:17:22.407Z,-4.10
2018-11-29T04:19:50.945Z,-4.20
2018-11-29T04:22:19.555Z,-4.30
2018-11-29T04:24:48.101Z,-4.20
2018-11-29T04:27:16.660Z,-4.30
2018-11-29T04:32:15.896Z,-4.30
2018-11-29T04:37:12.760Z,-4.30
2018-11-29T04:39:41.315Z,-4.30
2018-11-29T04:42:09.866Z,-4.30
2018-11-29T04:44:38.462Z,-4.30
2018-11-29T04:49:35.284Z,-4.20
2018-11-29T04:52:03.912Z,-4.30
2018-11-29T04:54:32.480Z,-4.20
2018-11-29T04:57:01.067Z,-4.20
2018-11-29T04:59:29.685Z,-4.10
2018-11-29T05:01:58.297Z,-4.40
2018-11-29T05:04:26.885Z,-4.10
2018-11-29T05:06:55.501Z,-4.10
2018-11-29T05:09:24.121Z,-4.20
2018-11-29T05:11:52.727Z,-4.20
2018-11-29T05:14:21.293Z,-4.30
2018-11-29T05:16:49.886Z,-4.30
2018-11-29T05:19:18.509Z,-4.30
2018-11-29T05:24:15.320Z,-4.30
2018-11-29T05:26:43.887Z,-4.20
2018-11-29T05:31:40.724Z,-4.30
2018-11-29T05:34:09.395Z,-4.20
2018-11-29T05:36:38.078Z,-4.20
2018-11-29T05:39:07.483Z,-4.10
2018-11-29T05:41:36.086Z,-4.20
2018-11-29T05:44:04.841Z,-3.80
2018-11-29T05:46:33.582Z,-4.10
2018-11-29T05:49:02.205Z,-4.10
2018-11-29T05:51:30.805Z,-4.00
2018-11-29T05:53:59.418Z,-4.30
2018-11-29T05:56:27.997Z,-4.30
2018-11-29T05:58:56.589Z,-4.40
2018-11-29T06:01:56.952Z,-4.40
2018-11-29T06:04:25.518Z,-4.30
2018-11-29T06:06:54.160Z,-4.40
2018-11-29T06:09:22.765Z,-4.40
2018-11-29T06:14:19.574Z,-4.30
2018-11-29T06:16:48.123Z,-4.40
2018-11-29T06:19:16.720Z,-4.40
2018-11-29T06:21:45.250Z,-4.40
2018-11-29T06:24:13.802Z,-4.60
2018-11-29T06:26:42.312Z,-4.50
2018-11-29T06:29:10.846Z,-4.40
2018-11-29T06:31:39.712Z,-4.30
2018-11-29T06:34:08.242Z,-4.30
2018-11-29T06:36:36.806Z,-4.30
2018-11-29T06:39:08.292Z,-4.30
2018-11-29T06:41:36.932Z,-4.30
2018-11-29T06:44:05.587Z,-4.50
2018-11-29T06:46:34.116Z,-4.40
2018-11-29T06:49:02.715Z,-4.40
2018-11-29T06:51:31.248Z,-4.40
2018-11-29T06:53:59.874Z,-4.40
2018-11-29T06:56:28.460Z,-4.30
2018-11-29T06:58:57.022Z,-4.30
2018-11-29T07:01:25.657Z,-4.40
2018-11-29T07:03:54.184Z,-4.40
2018-11-29T07:06:22.742Z,-4.50
2018-11-29T07:08:51.268Z,-4.40
2018-11-29T07:11:19.844Z,-4.30
2018-11-29T07:13:48.372Z,-4.40
2018-11-29T07:16:16.934Z,-4.40
2018-11-29T07:21:24.759Z,-4.40
2018-11-29T07:26:21.535Z,-4.30
2018-11-29T07:28:50.125Z,-4.30
2018-11-29T07:31:18.655Z,-3.70
2018-11-29T07:33:47.253Z,-4.90
2018-11-29T07:36:15.827Z,-4.10
2018-11-29T07:38:44.438Z,-4.20
2018-11-29T07:41:13.007Z,-4.10
2018-11-29T07:43:41.544Z,-4.00
2018-11-29T07:46:10.097Z,-3.50
2018-11-29T07:48:38.639Z,-3.90
2018-11-29T07:51:07.154Z,-4.00
2018-11-29T07:53:35.686Z,-3.80
2018-11-29T07:56:04.256Z,-3.80
2018-11-29T07:58:32.832Z,-3.70
2018-11-29T08:01:01.389Z,-3.70
2018-11-29T08:03:29.952Z,-3.70
2018-11-29T08:05:58.519Z,-3.40
2018-11-29T08:08:27.140Z,-3.30
2018-11-29T08:10:55.772Z,-3.10
2018-11-29T08:13:24.309Z,-3.00
2018-11-29T08:15:52.894Z,-3.00
2018-11-29T08:18:21.441Z,-2.90
2018-11-29T08:20:49.997Z,-2.80
2018-11-29T08:23:18.542Z,-2.80
2018-11-29T08:25:47.112Z,-2.60
2018-11-29T08:28:15.703Z,-2.60
2018-11-29T08:30:44.253Z,-3.30
2018-11-29T08:33:12.825Z,-2.70
2018-11-29T08:35:41.371Z,-2.70
2018-11-29T08:38:09.919Z,-2.90
2018-11-29T08:40:38.443Z,-2.90
2018-11-29T08:43:07.343Z,-2.60
2018-11-29T08:48:04.179Z,-3.00
2018-11-29T08:50:32.769Z,-2.70
2018-11-29T08:53:01.313Z,-2.70
2018-11-29T08:55:29.898Z,-2.60
2018-11-29T08:57:58.425Z,-2.70
2018-11-29T09:00:27.085Z,-2.60
2018-11-29T09:02:55.637Z,-2.50
2018-11-29T09:05:24.218Z,-2.70
2018-11-29T09:07:52.744Z,-2.50
2018-11-29T09:10:23.348Z,-2.60
2018-11-29T09:12:52.344Z,-2.50
2018-11-29T09:15:20.898Z,-2.60
2018-11-29T09:17:49.650Z,-2.70
2018-11-29T09:20:19.472Z,-2.50
2018-11-29T09:22:48.038Z,-2.30
2018-11-29T09:25:17.482Z,-2.30
2018-11-29T09:27:46.059Z,-1.90
2018-11-29T09:30:18.361Z,-2.20
2018-11-29T09:32:47.677Z,-2.20
2018-11-29T09:35:16.320Z,-2.10
2018-11-29T09:37:44.944Z,-1.90
2018-11-29T09:40:15.283Z,-2.10
2018-11-29T09:42:44.104Z,-2.00
2018-11-29T09:45:16.830Z,-1.90
2018-11-29T09:47:46.479Z,-1.80
2018-11-29T09:50:15.781Z,-2.10
2018-11-29T09:52:44.325Z,-2.00
2018-11-29T09:55:13.868Z,-2.00
2018-11-29T09:57:42.916Z,-2.20
2018-11-29T10:00:27.572Z,-1.80
2018-11-29T10:03:02.444Z,-2.00
2018-11-29T10:05:31.086Z,-1.80
2018-11-29T10:07:59.648Z,-1.80
2018-11-29T10:10:28.206Z,-1.90
2018-11-29T10:12:56.771Z,-1.70
2018-11-29T10:15:25.356Z,-1.50
2018-11-29T10:17:53.907Z,-1.60
2018-11-29T10:20:22.444Z,-1.50
2018-11-29T10:22:51.054Z,-1.60
2018-11-29T10:25:19.632Z,-1.60
2018-11-29T10:27:50.983Z,-1.40
2018-11-29T10:30:39.985Z,-1.30
2018-11-29T10:33:08.561Z,-1.40
2018-11-29T10:35:37.204Z,-1.30
2018-11-29T10:38:05.881Z,-1.30
2018-11-29T10:40:34.432Z,-1.20
2018-11-29T10:43:02.950Z,-1.20
2018-11-29T10:45:31.475Z,-0.70
2018-11-29T10:48:00.084Z,-1.00
2018-11-29T10:50:28.626Z,-0.90
2018-11-29T10:52:57.149Z,-0.90
2018-11-29T10:55:25.701Z,-0.90
2018-11-29T10:57:54.245Z,-0.90
2018-11-29T11:00:29.667Z,-0.80
2018-11-29T11:03:09.761Z,-0.80
2018-11-29T11:05:38.358Z,-0.70
2018-11-29T11:08:08.809Z,-0.60
2018-11-29T11:10:37.717Z,-0.80
2018-11-29T11:13:07.472Z,-0.70
2018-11-29T11:15:36.135Z,-0.50
2018-11-29T11:18:05.321Z,-0.50
2018-11-29T11:20:33.889Z,0.00
2018-11-29T11:23:02.419Z,-0.50
2018-11-29T11:25:30.994Z,-0.40
2018-11-29T11:27:59.534Z,-0.30
2018-11-29T11:30:28.101Z,-0.40
2018-11-29T11:32:56.616Z,-0.20
2018-11-29T11:37:56.367Z,0.10
2018-11-29T11:40:25.016Z,0.00
2018-11-29T11:42:53.621Z,-0.10
2018-11-29T11:45:22.275Z,-0.10
2018-11-29T11:48:02.974Z,-0.10
2018-11-29T11:50:26.070Z,-0.10
2018-11-29T11:55:29.926Z,-0.10
2018-11-29T11:57:51.955Z,0.00
2018-11-29T12:00:26.571Z,0.00
2018-11-29T12:03:27.046Z,0.10
2018-11-29T12:05:55.561Z,0.30
2018-11-29T12:08:24.044Z,-0.40
2018-11-29T12:10:52.582Z,0.20
2018-11-29T12:13:24.678Z,0.30
2018-11-29T12:15:53.251Z,0.90
2018-11-29T12:18:21.844Z,1.20
2018-11-29T12:20:50.680Z,1.40
2018-11-29T12:23:19.500Z,1.50
2018-11-29T12:25:48.217Z,2.00
2018-11-29T12:28:16.806Z,2.20
2018-11-29T12:30:48.307Z,2.00
2018-11-29T12:33:16.861Z,2.10
2018-11-29T12:35:45.500Z,2.40
2018-11-29T12:38:14.060Z,2.60
2018-11-29T12:40:42.777Z,2.80
2018-11-29T12:43:11.336Z,2.70
2018-11-29T12:45:39.878Z,2.80
2018-11-29T12:48:08.420Z,2.40
2018-11-29T12:50:38.704Z,2.30
2018-11-29T12:53:07.890Z,2.10
2018-11-29T12:55:41.557Z,2.10
2018-11-29T12:58:10.108Z,1.70
2018-11-29T13:00:38.645Z,1.60
2018-11-29T13:05:36.958Z,1.70
2018-11-29T13:08:06.518Z,1.70
2018-11-29T13:10:35.172Z,1.70
2018-11-29T13:13:04.022Z,2.80
2018-11-29T13:18:02.772Z,1.50
2018-11-29T13:20:32.595Z,1.40
2018-11-29T13:23:00.029Z,1.40
2018-11-29T13:25:28.969Z,1.30
2018-11-29T13:27:57.460Z,1.30
2018-11-29T13:30:26.047Z,1.60
2018-11-29T13:32:55.656Z,1.10
2018-11-29T13:35:32.386Z,0.90
2018-11-29T13:38:04.600Z,0.80
2018-11-29T13:40:33.031Z,0.60
2018-11-29T13:45:29.854Z,0.50
2018-11-29T13:47:58.403Z,0.40
2018-11-29T13:52:55.133Z,0.20
2018-11-29T13:55:23.599Z,0.50
2018-11-29T13:57:52.083Z,0.00
2018-11-29T14:00:21.583Z,0.20
2018-11-29T14:02:51.383Z,0.20
2018-11-29T14:05:19.910Z,0.00
2018-11-29T14:07:48.430Z,-0.20
2018-11-29T14:12:46.546Z,-0.20
2018-11-29T14:15:17.003Z,-0.20
2018-11-29T14:17:45.589Z,-0.30
2018-11-29T14:20:14.561Z,-0.40
2018-11-29T14:22:43.195Z,-0.40
2018-11-29T14:25:13.854Z,-0.40
2018-11-29T14:27:43.406Z,-0.80
2018-11-29T14:30:43.145Z,-0.50
2018-11-29T14:33:11.647Z,-0.50
2018-11-29T14:35:40.163Z,-0.50
2018-11-29T14:38:08.672Z,-0.60
2018-11-29T14:40:37.627Z,-0.50
2018-11-29T14:43:07.163Z,-0.60
2018-11-29T14:45:35.679Z,-0.80
2018-11-29T14:48:04.235Z,-0.80
2018-11-29T14:50:38.142Z,-1.10
2018-11-29T14:53:07.795Z,-0.80
2018-11-29T14:55:37.017Z,-0.50
2018-11-29T14:58:06.285Z,-1.00
2018-11-29T15:00:35.276Z,-0.90
2018-11-29T15:03:13.977Z,-0.90
2018-11-29T15:05:42.917Z,-0.90
2018-11-29T15:08:11.498Z,-0.50
2018-11-29T15:10:40.021Z,-1.30
2018-11-29T15:13:09.609Z,-1.00
2018-11-29T15:15:38.339Z,-1.10
2018-11-29T15:18:07.691Z,-1.20
2018-11-29T15:20:39.864Z,-1.10
2018-11-29T15:25:36.995Z,-1.10
2018-11-29T15:28:05.599Z,-1.40
2018-11-29T15:30:34.211Z,-1.10
2018-11-29T15:33:02.751Z,-1.20
2018-11-29T15:35:31.267Z,-1.30
2018-11-29T15:37:59.835Z,-1.40
2018-11-29T15:40:28.482Z,-1.30
2018-11-29T15:42:57.041Z,-1.30
2018-11-29T15:45:26.603Z,-1.40
2018-11-29T15:47:55.227Z,-1.40
2018-11-29T15:50:23.999Z,-1.40
2018-11-29T15:52:52.584Z,-3.00
2018-11-29T15:55:22.953Z,-1.50
2018-11-29T15:57:52.704Z,-1.60
2018-11-29T16:00:23.454Z,-1.60
2018-11-29T16:02:52.563Z,-1.30
2018-11-29T16:05:21.204Z,-1.60
2018-11-29T16:07:49.744Z,-2.00
2018-11-29T16:10:19.754Z,-0.80
2018-11-29T16:12:48.909Z,-1.50
2018-11-29T16:15:18.474Z,-1.60
2018-11-29T16:17:47.716Z,-1.80
2018-11-29T16:20:19.996Z,-1.50
2018-11-29T16:22:48.596Z,-1.60
2018-11-29T16:25:17.131Z,-1.70
2018-11-29T16:27:45.704Z,-1.30
2018-11-29T16:30:32.642Z,-1.50
2018-11-29T16:33:05.278Z,-2.00
2018-11-29T16:35:33.854Z,-1.70
2018-11-29T16:38:06.499Z,-1.90
2018-11-29T16:40:35.596Z,-1.90
2018-11-29T16:43:04.166Z,-1.80
2018-11-29T16:45:32.759Z,-1.70
2018-11-29T16:48:01.356Z,-1.80
2018-11-29T16:50:30.084Z,-1.80
2018-11-29T16:52:58.644Z,-1.80
2018-11-29T16:55:27.304Z,-2.20
2018-11-29T16:57:57.810Z,-1.60
2018-11-29T17:00:26.392Z,-1.90
2018-11-29T17:02:55.022Z,-2.30
2018-11-29T17:05:23.570Z,-2.00
2018-11-29T17:10:21.646Z,-1.80
2018-11-29T17:12:54.331Z,-1.90
2018-11-29T17:15:22.975Z,-2.00
2018-11-29T17:17:51.680Z,-1.40
2018-11-29T17:20:21.937Z,-2.00
2018-11-29T17:22:51.410Z,-2.50
2018-11-29T17:25:20.312Z,-2.20
2018-11-29T17:27:49.206Z,-2.20
2018-11-29T17:30:19.560Z,-2.00
2018-11-29T17:32:48.676Z,-2.10
2018-11-29T17:35:17.358Z,-2.10
2018-11-29T17:37:46.074Z,-2.20
2018-11-29T17:40:17.206Z,-2.00
2018-11-29T17:42:46.114Z,-2.00
2018-11-29T17:45:16.314Z,-2.00
2018-11-29T17:47:45.387Z,-2.10
2018-11-29T17:50:21.942Z,-2.20
2018-11-29T17:52:51.268Z,-2.40
2018-11-29T17:55:19.883Z,-2.20
2018-11-29T17:57:48.561Z,-2.10
2018-11-29T18:02:46.293Z,-2.10
2018-11-29T18:07:43.500Z,-2.20
2018-11-29T18:10:16.986Z,-2.40
2018-11-29T18:12:47.476Z,-2.30
2018-11-29T18:15:19.676Z,-2.30
2018-11-29T18:17:49.144Z,-2.40
2018-11-29T18:20:18.206Z,-1.70
2018-11-29T18:22:47.797Z,-2.60
2018-11-29T18:25:17.805Z,-2.00
2018-11-29T18:27:50.724Z,-1.70
2018-11-29T18:30:21.548Z,-2.50
2018-11-29T18:32:50.326Z,-2.70
2018-11-29T18:35:19.023Z,-2.30
2018-11-29T18:37:47.811Z,-2.10
2018-11-29T18:40:17.727Z,-2.20
2018-11-29T18:42:47.816Z,-2.50
2018-11-29T18:45:17.497Z,-2.30
2018-11-29T18:47:48.268Z,-2.00
2018-11-29T18:50:22.118Z,-2.20
2018-11-29T18:52:52.024Z,-2.20
2018-11-29T18:55:22.145Z,-2.10
2018-11-29T18:57:51.200Z,-2.10
2018-11-29T19:00:22.605Z,-2.40
2018-11-29T19:02:57.107Z,-2.20
2018-11-29T19:05:26.355Z,-2.30
2018-11-29T19:07:55.167Z,-2.20
2018-11-29T19:10:24.119Z,-2.50
2018-11-29T19:13:00.737Z,-2.50
2018-11-29T19:15:29.522Z,-2.40
2018-11-29T19:17:59.825Z,-2.20
2018-11-29T19:20:28.783Z,-2.30
2018-11-29T19:22:58.741Z,-2.40
2018-11-29T19:25:28.148Z,-2.30
2018-11-29T19:27:59.364Z,-2.70
2018-11-29T19:30:30.576Z,-2.80
2018-11-29T19:33:20.820Z,-2.30
2018-11-29T19:35:51.881Z,-2.20
2018-11-29T19:38:20.635Z,-2.30
2018-11-29T19:40:51.696Z,-2.20
2018-11-29T19:43:26.519Z,-2.20
2018-11-29T19:45:55.241Z,-2.10
2018-11-29T19:48:28.033Z,-2.40
2018-11-29T19:56:00.289Z,-2.10
2018-11-29T19:58:30.137Z,-2.50
2018-11-29T20:00:58.899Z,-2.30
2018-11-29T20:08:25.155Z,-2.30
2018-11-29T20:10:55.663Z,-2.20
2018-11-29T20:13:26.127Z,-2.00
2018-11-29T20:15:55.589Z,-2.30
2018-11-29T20:18:24.246Z,-2.40
2018-11-29T20:23:22.137Z,-3.00
2018-11-29T20:30:47.809Z,-2.40
2018-11-29T20:38:14.948Z,-2.30
2018-11-29T20:43:16.986Z,-2.50
2018-11-29T20:48:21.103Z,-2.30
2018-11-29T20:50:52.155Z,-2.20
2018-11-29T20:58:18.612Z,-2.30
2018-11-29T21:00:50.635Z,-2.70
2018-11-29T21:05:49.284Z,-2.30
2018-11-29T21:08:18.515Z,-2.30
2018-11-29T21:10:47.626Z,-2.20
2018-11-29T21:13:17.392Z,-2.30
2018-11-29T21:15:47.715Z,-2.20
2018-11-29T21:18:17.409Z,-1.90
2018-11-29T21:20:46.476Z,-2.40
2018-11-29T21:25:45.842Z,-2.60
2018-11-29T21:28:14.605Z,-2.30
2018-11-29T21:33:13.205Z,-2.40
2018-11-29T21:41:02.355Z,-2.70
2018-11-29T21:50:57.307Z,-2.30
2018-11-29T21:55:54.750Z,-2.50
2018-11-29T21:58:25.362Z,-2.30
2018-11-29T22:08:20.795Z,-2.60
2018-11-29T22:10:49.693Z,-2.30
2018-11-29T22:13:18.625Z,-2.50
2018-11-29T22:18:17.601Z,-2.50
2018-11-29T22:20:46.935Z,-2.40
2018-11-29T22:25:44.596Z,-2.50
2018-11-29T22:35:40.095Z,-1.90
2018-11-29T22:38:09.033Z,-2.50
2018-11-29T22:40:37.698Z,-2.30
2018-11-29T22:43:06.490Z,-2.00
2018-11-29T22:48:03.366Z,-2.00
2018-11-29T22:55:28.464Z,-2.40
2018-11-29T23:05:21.884Z,-2.40
2018-11-29T23:12:46.781Z,-2.70
2018-11-29T23:17:43.496Z,-2.50
2018-11-29T23:32:43.475Z,-2.70
2018-11-29T23:35:12.927Z,-2.40
2018-11-29T23:37:41.469Z,-2.10
2018-11-29T23:40:16.082Z,-2.20
2018-11-29T23:42:45.078Z,-2.00
2018-11-29T23:52:39.245Z,-2.00
2018-11-29T23:55:09.360Z,-2.30
2018-11-29T23:57:37.995Z,-2.30
